Time;durP1;ratioP1;P1;durP2;ratioP2;P2;SDS_P1;SDS_P2;PMS_P1;PMS_P2;Temp;Humidity;BMP_temperature;BMP_pressure;BME280_temperature;BME280_humidity;BME280_pressure;Samples;Min_cycle;Max_cycle;Signal;HPM_P1;HPM_P2
2022/01/16 00:00:40;;;;;;;19.27;7.43;;;3.60;99.90;;;;;;5064506;28;20706;-80
2022/01/16 00:05:58;;;;;;;8.73;5.63;;;3.60;99.90;;;;;;5068154;28;20049;-78
2022/01/16 00:08:23;;;;;;;21.73;8.73;;;5.20;99.90;;;;;;5064261;28;20191;-79
2022/01/16 00:10:52;;;;;;;14.77;5.63;;;3.60;99.90;;;;;;5062795;28;21003;-78
2022/01/16 00:13:23;;;;;;;18.60;6.60;;;4.10;99.90;;;;;;5055479;28;20041;-79
2022/01/16 00:15:49;;;;;;;28.05;8.48;;;3.70;99.90;;;;;;5058050;28;20120;-79
2022/01/16 00:18:26;;;;;;;22.17;9.38;;;3.80;99.90;;;;;;5064748;28;20057;-79
2022/01/16 00:21:03;;;;;;;21.10;8.55;;;4.30;99.90;;;;;;5058319;28;20102;-79
2022/01/16 00:23:38;;;;;;;13.82;5.95;;;3.40;99.90;;;;;;5073450;28;20037;-78
2022/01/16 00:26:04;;;;;;;19.75;7.38;;;4.30;99.90;;;;;;5056630;28;20037;-78
2022/01/16 00:28:30;;;;;;;14.93;7.00;;;4.00;99.90;;;;;;5067078;28;20131;-80
2022/01/16 00:30:56;;;;;;;17.38;8.15;;;3.70;99.90;;;;;;5066893;28;20048;-79
2022/01/16 00:33:27;;;;;;;22.50;8.25;;;4.00;99.90;;;;;;5066018;28;20048;-78
2022/01/16 00:35:59;;;;;;;17.35;5.72;;;4.00;99.90;;;;;;5066324;28;20053;-78
2022/01/16 00:38:25;;;;;;;18.27;6.88;;;4.20;99.90;;;;;;5072363;28;20096;-78
2022/01/16 00:40:56;;;;;;;13.60;5.10;;;3.90;99.90;;;;;;5069857;28;20118;-78
2022/01/16 00:43:22;;;;;;;23.92;5.85;;;3.70;99.90;;;;;;5069748;28;20045;-78
2022/01/16 00:45:54;;;;;;;17.00;6.07;;;4.00;99.90;;;;;;5065021;28;20053;-78
2022/01/16 00:48:20;;;;;;;19.20;8.00;;;3.70;99.90;;;;;;5079663;28;20051;-79
2022/01/16 00:50:46;;;;;;;15.98;6.53;;;4.30;99.90;;;;;;5053182;28;20053;-78
2022/01/16 00:53:16;;;;;;;25.67;8.85;;;3.90;99.90;;;;;;5053934;28;20050;-78
2022/01/16 00:55:52;;;;;;;20.05;7.85;;;3.70;99.90;;;;;;5057774;28;20041;-79
2022/01/16 00:58:18;;;;;;;22.17;9.57;;;3.30;99.90;;;;;;5067994;28;20128;-79
2022/01/16 01:00:44;;;;;;;16.83;8.95;;;3.70;99.90;;;;;;5066617;28;20379;-79
2022/01/16 01:03:13;;;;;;;17.88;7.68;;;4.40;99.90;;;;;;5060080;28;20054;-78
2022/01/16 01:05:38;;;;;;;16.17;7.93;;;3.40;99.90;;;;;;5062141;28;20036;-79
2022/01/16 01:08:06;;;;;;;18.77;8.43;;;3.70;99.90;;;;;;5058317;28;20048;-79
2022/01/16 01:10:38;;;;;;;12.30;6.43;;;3.40;99.90;;;;;;5054926;28;20472;-79
2022/01/16 01:13:11;;;;;;;13.68;6.03;;;3.40;99.90;;;;;;5059648;28;20562;-79
2022/01/16 01:15:46;;;;;;;14.63;6.50;;;3.80;99.90;;;;;;5050588;28;20052;-79
2022/01/16 01:18:13;;;;;;;18.25;6.90;;;3.70;99.90;;;;;;5055257;28;20083;-79
2022/01/16 01:20:41;;;;;;;12.35;4.28;;;3.90;99.90;;;;;;5044434;28;20045;-78
2022/01/16 01:23:11;;;;;;;21.85;6.55;;;4.90;99.90;;;;;;5053498;28;20535;-79
2022/01/16 01:25:46;;;;;;;16.10;7.38;;;3.80;99.90;;;;;;5070341;28;20450;-78
2022/01/16 01:28:15;;;;;;;16.02;6.10;;;4.50;99.90;;;;;;5049277;28;20132;-79
2022/01/16 01:30:45;;;;;;;17.20;6.60;;;3.60;99.90;;;;;;5054044;28;20040;-80
2022/01/16 01:33:18;;;;;;;16.38;5.75;;;3.30;99.90;;;;;;5053535;28;20037;-79
2022/01/16 01:35:47;;;;;;;20.52;7.15;;;3.60;99.90;;;;;;5060585;28;20037;-80
2022/01/16 01:38:18;;;;;;;20.58;8.52;;;3.60;99.90;;;;;;5047473;28;20049;-80
2022/01/16 01:40:46;;;;;;;18.85;5.78;;;2.80;99.90;;;;;;5050906;28;20593;-79
2022/01/16 01:51:46;;;;;;;16.45;7.70;;;3.10;99.90;;;;;;5061072;28;20455;-80
2022/01/16 01:54:16;;;;;;;18.00;6.95;;;3.20;99.90;;;;;;5056400;28;20055;-79
2022/01/16 01:56:42;;;;;;;24.92;8.98;;;3.20;99.90;;;;;;5049204;28;20049;-79
2022/01/16 01:59:08;;;;;;;14.13;6.28;;;4.20;99.90;;;;;;5066574;28;20051;-80
2022/01/16 02:01:36;;;;;;;27.70;10.18;;;3.50;99.90;;;;;;5066864;28;20526;-80
2022/01/16 02:04:03;;;;;;;22.55;7.50;;;3.30;99.90;;;;;;5053136;28;20033;-80
2022/01/16 02:06:31;;;;;;;16.30;6.75;;;3.30;99.90;;;;;;5052327;28;20120;-80
2022/01/16 02:09:04;;;;;;;18.15;7.20;;;3.20;99.90;;;;;;5057076;28;20140;-80
2022/01/16 02:11:32;;;;;;;19.95;7.88;;;2.00;99.90;;;;;;5053018;28;20079;-80
2022/01/16 02:35:57;;;;;;;16.45;6.30;;;3.20;99.90;;;;;;5070102;28;20045;-80
2022/01/16 02:38:23;;;;;;;19.55;7.55;;;2.70;99.90;;;;;;5066739;28;20099;-81
2022/01/16 02:40:58;;;;;;;22.20;8.02;;;3.10;99.90;;;;;;5067032;28;20079;-79
2022/01/16 02:43:30;;;;;;;10.95;5.70;;;2.90;99.90;;;;;;5057161;28;20036;-80
2022/01/16 02:46:35;;;;;;;10.25;5.05;;;2.80;99.90;;;;;;5058558;28;20044;-80
2022/01/16 02:48:50;;;;;;;16.63;5.00;;;4.00;99.90;;;;;;5054628;28;20068;-79
2022/01/16 02:51:22;;;;;;;16.77;6.18;;;2.60;99.90;;;;;;5024928;28;20135;-81
2022/01/16 02:53:53;;;;;;;17.60;7.10;;;2.70;99.90;;;;;;5020710;28;20057;-80
2022/01/16 02:56:20;;;;;;;19.65;8.20;;;3.60;99.90;;;;;;5024896;28;20053;-80
2022/01/16 02:58:47;;;;;;;19.17;8.20;;;2.50;99.90;;;;;;5039961;28;20037;-80
2022/01/16 03:01:19;;;;;;;15.32;5.60;;;1.70;99.90;;;;;;5027193;28;20435;-80
2022/01/16 03:03:46;;;;;;;12.20;5.63;;;2.70;99.90;;;;;;5022430;28;20072;-80
2022/01/16 03:06:15;;;;;;;13.18;5.57;;;2.80;99.90;;;;;;5022727;28;20044;-80
2022/01/16 03:08:41;;;;;;;15.15;7.10;;;2.60;99.90;;;;;;5025573;28;20033;-79
2022/01/16 03:13:57;;;;;;;19.25;6.43;;;2.90;99.90;;;;;;5039629;28;20045;-79
2022/01/16 03:16:26;;;;;;;26.60;8.20;;;3.00;99.90;;;;;;5037032;28;20589;-80
2022/01/16 03:21:57;;;;;;;15.23;7.68;;;2.90;99.90;;;;;;5041076;28;20045;-80
2022/01/16 03:24:28;;;;;;;15.27;6.32;;;3.40;99.90;;;;;;5021380;28;20048;-79
2022/01/16 03:27:03;;;;;;;14.73;6.47;;;2.90;99.90;;;;;;5043576;28;20045;-80
2022/01/16 03:29:34;;;;;;;11.02;5.55;;;3.40;99.90;;;;;;5045859;28;20042;-79
2022/01/16 03:32:04;;;;;;;7.30;3.93;;;2.20;99.90;;;;;;5021619;28;20050;-79
2022/01/16 03:34:30;;;;;;;15.88;7.10;;;3.40;99.90;;;;;;5019758;28;20069;-79
2022/01/16 03:36:59;;;;;;;11.95;6.30;;;2.60;99.90;;;;;;5027277;28;20172;-79
2022/01/16 03:39:28;;;;;;;20.08;5.75;;;2.70;99.90;;;;;;5019063;28;20709;-80
2022/01/16 03:41:59;;;;;;;9.88;4.65;;;2.70;99.90;;;;;;5037862;28;20069;-79
2022/01/16 03:44:24;;;;;;;12.00;4.53;;;2.70;99.90;;;;;;5005219;28;20038;-79
2022/01/16 03:46:52;;;;;;;9.27;6.20;;;3.40;99.90;;;;;;5038821;28;20634;-80
2022/01/16 03:49:26;;;;;;;19.95;5.78;;;1.40;99.90;;;;;;5048486;28;20080;-79
2022/01/16 03:51:53;;;;;;;7.40;3.63;;;4.10;99.90;;;;;;5056417;28;21564;-80
2022/01/16 03:54:27;;;;;;;9.10;3.95;;;3.30;99.90;;;;;;5065810;28;20067;-79
2022/01/16 03:56:54;;;;;;;13.00;5.30;;;2.80;99.90;;;;;;5059098;28;20042;-78
2022/01/16 03:59:23;;;;;;;10.75;3.40;;;2.80;99.90;;;;;;5066037;28;20503;-78
2022/01/16 04:01:49;;;;;;;12.57;5.57;;;2.80;99.90;;;;;;5056201;28;20072;-78
2022/01/16 04:04:15;;;;;;;8.88;3.90;;;3.10;99.90;;;;;;5054707;28;20042;-77
2022/01/16 04:06:44;;;;;;;10.70;5.13;;;3.70;99.90;;;;;;5060503;28;20115;-78
2022/01/16 04:09:10;;;;;;;7.40;3.42;;;3.30;99.90;;;;;;5060238;28;20037;-78
2022/01/16 04:11:46;;;;;;;11.93;3.97;;;2.80;99.90;;;;;;5061329;28;20646;-77
2022/01/16 04:14:22;;;;;;;9.55;4.88;;;3.90;99.90;;;;;;5055770;28;20064;-78
2022/01/16 04:16:52;;;;;;;7.57;3.03;;;2.90;99.90;;;;;;5052834;28;20048;-78
2022/01/16 04:19:21;;;;;;;6.75;4.15;;;2.20;99.90;;;;;;5060289;28;20045;-78
2022/01/16 04:21:46;;;;;;;7.22;3.30;;;2.50;99.90;;;;;;5055510;28;20037;-77
2022/01/16 04:24:13;;;;;;;8.55;4.03;;;3.30;99.90;;;;;;5052639;28;20041;-78
2022/01/16 04:26:41;;;;;;;7.57;4.05;;;2.90;99.90;;;;;;5052398;28;20072;-78
2022/01/16 04:29:17;;;;;;;9.30;4.50;;;2.70;99.90;;;;;;5046653;28;20037;-78
2022/01/16 04:31:43;;;;;;;8.30;4.13;;;3.10;99.90;;;;;;5059466;28;20064;-77
2022/01/16 04:34:12;;;;;;;9.63;3.45;;;3.10;99.90;;;;;;5057385;28;20055;-77
2022/01/16 04:36:42;;;;;;;7.65;4.45;;;2.40;99.90;;;;;;5064436;28;20033;-77
2022/01/16 04:39:16;;;;;;;9.77;4.25;;;2.70;99.90;;;;;;5056470;28;20029;-78
2022/01/16 04:44:27;;;;;;;9.07;4.40;;;2.60;99.90;;;;;;5060612;28;20040;-78
2022/01/16 04:46:53;;;;;;;8.25;3.63;;;2.70;99.90;;;;;;5057670;28;20061;-77
2022/01/16 04:49:22;;;;;;;10.70;3.97;;;2.60;99.90;;;;;;5047770;28;20052;-78
2022/01/16 04:51:48;;;;;;;12.38;3.92;;;2.90;99.90;;;;;;5053199;28;20042;-78
2022/01/16 04:54:20;;;;;;;12.02;5.32;;;3.20;99.90;;;;;;5059036;28;20131;-78
2022/01/16 04:56:46;;;;;;;6.97;3.00;;;2.70;99.90;;;;;;5049235;28;20029;-78
2022/01/16 04:59:12;;;;;;;2.75;2.28;;;2.70;99.90;;;;;;5051362;28;20045;-78
2022/01/16 05:01:38;;;;;;;6.70;3.00;;;2.70;99.90;;;;;;5051803;28;20040;-78
2022/01/16 05:04:04;;;;;;;8.23;3.47;;;1.60;99.90;;;;;;5053013;28;20103;-78
2022/01/16 05:06:32;;;;;;;5.88;2.78;;;2.70;99.90;;;;;;5060576;28;20586;-78
2022/01/16 05:08:58;;;;;;;5.65;3.38;;;2.60;99.90;;;;;;5052531;28;20072;-77
2022/01/16 05:11:26;;;;;;;8.93;3.72;;;2.70;99.90;;;;;;5047350;28;20056;-78
2022/01/16 05:16:35;;;;;;;8.57;3.33;;;3.00;99.90;;;;;;5058980;28;20052;-78
2022/01/16 05:19:15;;;;;;;6.65;3.47;;;2.90;99.90;;;;;;5049290;28;20056;-78
2022/01/16 05:21:44;;;;;;;5.55;2.60;;;3.30;99.90;;;;;;5050020;28;20233;-78
2022/01/16 05:24:13;;;;;;;9.52;4.25;;;1.60;99.90;;;;;;5055705;28;20510;-78
2022/01/16 05:26:44;;;;;;;6.25;4.15;;;2.70;99.90;;;;;;5055855;28;20040;-78
2022/01/16 05:29:11;;;;;;;6.93;3.90;;;3.60;99.90;;;;;;5048585;28;20886;-78
2022/01/16 05:31:45;;;;;;;5.28;3.03;;;2.80;99.90;;;;;;5056506;28;20045;-78
2022/01/16 05:34:17;;;;;;;9.30;4.00;;;2.80;99.90;;;;;;5046463;28;20580;-78
2022/01/16 05:36:45;;;;;;;5.82;3.33;;;2.90;99.90;;;;;;5068356;28;20058;-78
2022/01/16 05:39:11;;;;;;;7.57;4.78;;;2.90;99.90;;;;;;5062242;28;20068;-78
2022/01/16 05:41:38;;;;;;;6.88;3.22;;;3.30;99.90;;;;;;5047855;28;20057;-78
2022/01/16 05:44:04;;;;;;;10.68;4.35;;;2.80;99.90;;;;;;5060772;28;20099;-78
2022/01/16 05:46:30;;;;;;;10.40;3.95;;;4.00;99.90;;;;;;5056987;28;20070;-78
2022/01/16 05:48:56;;;;;;;8.02;3.90;;;3.00;99.90;;;;;;5047506;28;20067;-78
2022/01/16 05:51:25;;;;;;;9.50;4.60;;;2.80;99.90;;;;;;5018696;28;20081;-78
2022/01/16 05:53:56;;;;;;;7.78;3.88;;;3.10;99.90;;;;;;5018106;28;20037;-78
2022/01/16 05:56:25;;;;;;;6.43;3.88;;;3.20;99.90;;;;;;5017801;28;20041;-78
2022/01/16 05:58:50;;;;;;;5.28;2.97;;;3.20;99.90;;;;;;5038728;28;20499;-78
2022/01/16 06:01:20;;;;;;;7.85;3.55;;;3.40;99.90;;;;;;5000161;28;20041;-78
2022/01/16 06:03:46;;;;;;;9.27;3.85;;;2.50;99.90;;;;;;5018362;28;20037;-78
2022/01/16 06:06:24;;;;;;;6.68;3.88;;;2.80;99.90;;;;;;5012388;28;20038;-79
2022/01/16 06:08:50;;;;;;;5.82;3.38;;;3.70;99.90;;;;;;5020154;28;20159;-78
2022/01/16 06:11:19;;;;;;;11.80;4.50;;;2.80;99.90;;;;;;5017830;28;20053;-78
2022/01/16 06:13:45;;;;;;;6.93;3.08;;;1.80;99.90;;;;;;5036707;28;20069;-78
2022/01/16 06:16:18;;;;;;;5.50;3.05;;;1.70;99.90;;;;;;5023590;28;20076;-78
2022/01/16 06:18:44;;;;;;;4.10;2.28;;;2.50;99.90;;;;;;5016820;28;20045;-78
2022/01/16 06:21:13;;;;;;;6.05;3.50;;;3.20;99.90;;;;;;5023293;28;20041;-78
2022/01/16 06:23:39;;;;;;;7.32;4.35;;;2.90;99.90;;;;;;5036772;28;20073;-78
2022/01/16 06:26:14;;;;;;;6.43;3.33;;;2.90;99.90;;;;;;5017766;28;20041;-77
2022/01/16 06:28:48;;;;;;;7.30;3.47;;;2.90;99.90;;;;;;5018540;28;20141;-78
2022/01/16 06:31:14;;;;;;;6.93;3.97;;;3.80;99.90;;;;;;5033525;28;20424;-78
2022/01/16 06:33:45;;;;;;;6.30;3.22;;;3.90;99.90;;;;;;5017828;28;20079;-78
2022/01/16 06:36:14;;;;;;;8.70;3.90;;;3.30;99.90;;;;;;5022729;28;20056;-78
2022/01/16 06:38:42;;;;;;;7.50;3.80;;;3.30;99.90;;;;;;5039735;28;20487;-78
2022/01/16 06:41:16;;;;;;;7.38;5.13;;;3.70;99.90;;;;;;5015821;28;20053;-78
2022/01/16 06:43:44;;;;;;;9.35;4.32;;;3.00;99.90;;;;;;5025085;28;20122;-78
2022/01/16 06:46:10;;;;;;;10.73;3.03;;;2.50;99.90;;;;;;5019118;28;20049;-79
2022/01/16 06:48:36;;;;;;;6.53;3.63;;;3.40;99.90;;;;;;5004467;28;20030;-78
2022/01/16 06:51:08;;;;;;;11.05;4.57;;;2.60;99.90;;;;;;5054387;28;20134;-79
2022/01/16 06:53:34;;;;;;;4.07;1.93;;;3.80;99.90;;;;;;5052529;28;20049;-79
2022/01/16 06:56:00;;;;;;;7.63;3.75;;;3.40;99.90;;;;;;5054531;28;20040;-79
2022/01/16 06:58:28;;;;;;;6.50;3.35;;;3.10;99.90;;;;;;5057920;28;20041;-78
2022/01/16 07:00:57;;;;;;;8.75;5.70;;;3.50;99.90;;;;;;5050689;28;20301;-79
2022/01/16 07:03:25;;;;;;;8.93;3.35;;;3.00;99.90;;;;;;5049315;28;20053;-78
2022/01/16 07:05:54;;;;;;;12.00;4.90;;;3.60;99.90;;;;;;5057441;28;20045;-78
2022/01/16 07:08:23;;;;;;;8.25;4.53;;;3.00;99.90;;;;;;5052821;28;20045;-78
2022/01/16 07:10:50;;;;;;;5.22;3.03;;;3.60;99.90;;;;;;5049395;28;20196;-78
2022/01/16 07:13:22;;;;;;;9.80;3.53;;;3.00;99.90;;;;;;5032377;28;20048;-78
2022/01/16 07:15:52;;;;;;;8.55;3.72;;;3.70;99.90;;;;;;5045865;28;20125;-79
2022/01/16 07:18:21;;;;;;;10.52;3.47;;;3.00;99.90;;;;;;5056904;28;20044;-78
2022/01/16 07:20:52;;;;;;;8.55;3.97;;;2.90;99.90;;;;;;5057245;28;20050;-79
2022/01/16 07:23:18;;;;;;;7.97;3.40;;;1.90;99.90;;;;;;5057996;28;20127;-78
2022/01/16 07:25:48;;;;;;;10.05;3.83;;;3.50;99.90;;;;;;5045536;28;20103;-78
2022/01/16 07:28:15;;;;;;;10.60;4.25;;;2.90;99.90;;;;;;5060076;28;20044;-78
2022/01/16 07:30:44;;;;;;;13.52;5.35;;;3.20;99.90;;;;;;5055309;28;20041;-79
2022/01/16 07:33:13;;;;;;;8.68;4.55;;;2.50;99.90;;;;;;5054417;28;20490;-78
2022/01/16 07:35:45;;;;;;;7.40;3.03;;;3.30;99.90;;;;;;5054098;28;20028;-78
2022/01/16 07:38:17;;;;;;;10.73;4.28;;;2.70;99.90;;;;;;5052073;28;20052;-79
2022/01/16 07:40:43;;;;;;;8.88;4.05;;;3.00;99.90;;;;;;5057443;28;20049;-77
2022/01/16 07:43:13;;;;;;;5.82;3.58;;;4.10;99.90;;;;;;5059394;28;20044;-78
2022/01/16 07:45:42;;;;;;;8.98;4.38;;;3.20;99.90;;;;;;5052007;28;20091;-78
2022/01/16 07:48:18;;;;;;;9.50;4.07;;;3.10;99.90;;;;;;5056751;28;20041;-83
2022/01/16 07:50:44;;;;;;;11.55;4.13;;;3.40;99.90;;;;;;5046248;28;20068;-78
2022/01/16 07:53:10;;;;;;;7.70;3.75;;;3.30;99.90;;;;;;5055619;28;20126;-79
2022/01/16 07:55:42;;;;;;;6.85;4.30;;;3.20;99.90;;;;;;5060975;28;20642;-78
2022/01/16 07:58:12;;;;;;;11.07;5.50;;;3.20;99.90;;;;;;5055241;28;20061;-79
2022/01/16 08:00:42;;;;;;;9.75;3.97;;;3.10;99.90;;;;;;5058787;28;20102;-80
2022/01/16 08:03:08;;;;;;;6.65;3.28;;;4.60;99.90;;;;;;5033421;28;20136;-79
2022/01/16 08:05:34;;;;;;;10.40;4.93;;;2.90;99.90;;;;;;5062534;28;20045;-79
2022/01/16 08:08:05;;;;;;;8.48;3.92;;;3.20;99.90;;;;;;5052847;28;20089;-79
2022/01/16 08:10:34;;;;;;;9.55;4.65;;;2.90;99.90;;;;;;5065633;28;20544;-79
2022/01/16 08:13:00;;;;;;;8.95;3.90;;;3.20;99.90;;;;;;5063077;28;20533;-79
2022/01/16 08:15:26;;;;;;;11.05;4.72;;;3.20;99.90;;;;;;5051025;28;20166;-79
2022/01/16 08:17:52;;;;;;;10.50;4.70;;;3.50;99.90;;;;;;5061298;28;20472;-79
2022/01/16 08:20:21;;;;;;;12.57;5.00;;;3.80;99.90;;;;;;5047338;28;20087;-79
2022/01/16 08:22:47;;;;;;;10.32;5.15;;;3.30;99.90;;;;;;5053665;28;20041;-79
2022/01/16 08:25:14;;;;;;;11.88;4.75;;;3.40;99.90;;;;;;5052079;28;20069;-78
2022/01/16 08:27:40;;;;;;;6.97;3.50;;;3.50;99.90;;;;;;5050146;28;20516;-79
2022/01/16 08:30:07;;;;;;;7.70;3.63;;;3.40;99.90;;;;;;5068599;28;20094;-79
2022/01/16 08:32:38;;;;;;;8.70;3.55;;;3.40;99.90;;;;;;5053621;28;20075;-80
2022/01/16 08:35:09;;;;;;;9.15;4.30;;;3.70;99.90;;;;;;5052392;28;20808;-79
2022/01/16 08:37:37;;;;;;;6.85;3.25;;;3.50;99.90;;;;;;5056709;28;20041;-79
2022/01/16 08:40:07;;;;;;;7.20;3.53;;;3.70;99.90;;;;;;5054554;28;20478;-79
2022/01/16 08:42:49;;;;;;;7.50;3.53;;;3.70;99.90;;;;;;5053878;28;20045;-80
2022/01/16 08:45:23;;;;;;;6.30;3.25;;;3.80;99.90;;;;;;5050706;28;20187;-81
2022/01/16 08:47:57;;;;;;;6.35;4.43;;;3.70;99.90;;;;;;5056130;28;20120;-81
2022/01/16 08:50:26;;;;;;;12.55;4.70;;;3.20;99.90;;;;;;5058693;28;20156;-80
2022/01/16 08:52:55;;;;;;;12.60;5.85;;;3.70;99.90;;;;;;5066928;28;20127;-81
2022/01/16 08:55:26;;;;;;;13.55;5.72;;;4.00;99.90;;;;;;5059309;28;20096;-80
2022/01/16 08:57:52;;;;;;;9.63;4.65;;;3.40;99.90;;;;;;5052309;28;20048;-80
2022/01/16 09:00:21;;;;;;;16.52;7.05;;;3.60;99.90;;;;;;5054063;28;20108;-79
2022/01/16 09:02:48;;;;;;;12.70;5.22;;;3.60;99.90;;;;;;5051185;28;20289;-80
2022/01/16 09:05:16;;;;;;;8.73;3.72;;;3.90;99.90;;;;;;5052682;28;20161;-79
2022/01/16 09:07:54;;;;;;;8.07;3.78;;;3.10;99.90;;;;;;5071623;28;20123;-80
2022/01/16 09:10:25;;;;;;;8.23;3.90;;;3.90;99.90;;;;;;5059400;28;20045;-78
2022/01/16 09:12:58;;;;;;;11.07;5.03;;;4.00;99.90;;;;;;5057672;28;20520;-79
2022/01/16 09:15:32;;;;;;;12.35;5.15;;;3.80;99.90;;;;;;5057675;28;20047;-79
2022/01/16 09:18:13;;;;;;;18.50;6.95;;;3.70;99.90;;;;;;5056254;28;20037;-79
2022/01/16 09:20:39;;;;;;;12.23;6.50;;;5.20;99.90;;;;;;5057166;28;20103;-79
2022/01/16 09:23:08;;;;;;;10.43;4.75;;;3.50;99.90;;;;;;5054782;28;20440;-78
2022/01/16 09:25:55;;;;;;;12.75;4.25;;;3.90;99.90;;;;;;5048681;28;20037;-79
2022/01/16 09:28:21;;;;;;;5.47;3.80;;;3.10;99.90;;;;;;5053001;28;20049;-80
2022/01/16 09:30:55;;;;;;;11.95;5.28;;;3.70;99.90;;;;;;5049963;28;20063;-81
2022/01/16 09:33:48;;;;;;;12.95;5.60;;;4.40;99.90;;;;;;5053255;28;20037;-81
2022/01/16 09:36:53;;;;;;;12.38;5.07;;;2.60;99.90;;;;;;5047935;28;20053;-80
2022/01/16 09:39:19;;;;;;;9.32;4.93;;;3.80;99.90;;;;;;5049263;28;20045;-80
2022/01/16 09:41:46;;;;;;;10.80;4.80;;;4.30;99.90;;;;;;5055677;28;20045;-81
2022/01/16 09:44:13;;;;;;;8.73;5.72;;;3.80;99.90;;;;;;5034120;28;20438;-80
2022/01/16 09:46:38;;;;;;;5.95;2.97;;;4.00;99.90;;;;;;5053703;28;20048;-80
2022/01/16 09:49:04;;;;;;;11.77;5.00;;;4.40;99.90;;;;;;5053674;28;20045;-80
2022/01/16 09:51:34;;;;;;;9.98;4.78;;;3.90;99.90;;;;;;5052815;28;20048;-82
2022/01/16 09:54:00;;;;;;;6.93;4.45;;;4.00;99.90;;;;;;5059903;28;20519;-80
2022/01/16 09:56:26;;;;;;;12.13;5.13;;;4.10;99.90;;;;;;5054509;28;20045;-80
2022/01/16 09:58:54;;;;;;;8.90;5.00;;;4.20;99.90;;;;;;5044714;28;20040;-78
2022/01/16 10:01:20;;;;;;;9.70;4.47;;;4.30;99.90;;;;;;5052645;28;20098;-82
2022/01/16 10:03:46;;;;;;;11.15;5.25;;;4.30;99.90;;;;;;5058541;28;20094;-83
2022/01/16 10:06:19;;;;;;;12.10;4.40;;;4.40;99.90;;;;;;5062930;28;20503;-81
2022/01/16 10:08:45;;;;;;;10.13;4.68;;;4.50;99.90;;;;;;5049174;28;20458;-81
2022/01/16 10:11:37;;;;;;;8.75;5.22;;;4.40;99.90;;;;;;5055052;28;20056;-82
2022/01/16 10:14:20;;;;;;;17.45;6.70;;;4.30;99.90;;;;;;5054767;28;20148;-81
2022/01/16 10:16:46;;;;;;;13.25;5.10;;;4.40;99.90;;;;;;5056565;28;20109;-81
2022/01/16 10:19:31;;;;;;;14.13;6.47;;;4.40;99.90;;;;;;5049552;28;20037;-83
2022/01/16 10:22:11;;;;;;;8.77;4.75;;;4.90;99.90;;;;;;5050810;28;20047;-81
2022/01/16 10:24:39;;;;;;;17.85;5.78;;;4.30;99.90;;;;;;5049701;28;20037;-82
2022/01/16 10:27:08;;;;;;;12.45;6.35;;;4.20;99.90;;;;;;5057846;28;20045;-81
2022/01/16 10:29:51;;;;;;;10.25;5.72;;;4.70;99.90;;;;;;5050062;28;20063;-82
2022/01/16 10:32:25;;;;;;;7.65;5.10;;;4.30;99.90;;;;;;5052762;28;20991;-80
2022/01/16 10:35:22;;;;;;;8.80;4.57;;;4.40;99.90;;;;;;5048283;28;20037;-86
2022/01/16 10:37:54;;;;;;;11.35;5.55;;;4.30;99.90;;;;;;5048035;28;20662;-80
2022/01/16 10:40:21;;;;;;;11.43;5.03;;;4.40;99.90;;;;;;5053231;28;20044;-79
2022/01/16 10:42:52;;;;;;;15.90;5.88;;;4.40;99.90;;;;;;5049300;28;20044;-81
2022/01/16 10:45:22;;;;;;;5.13;2.97;;;4.40;99.90;;;;;;5048690;28;20155;-77
2022/01/16 10:47:54;;;;;;;13.98;5.03;;;4.50;99.90;;;;;;5050701;28;20279;-77
2022/01/16 10:50:28;;;;;;;10.00;3.97;;;4.60;99.90;;;;;;5050347;28;20107;-77
2022/01/16 10:53:01;;;;;;;11.10;4.97;;;4.60;99.90;;;;;;5050686;28;20099;-78
2022/01/16 10:55:44;;;;;;;13.35;5.72;;;4.60;99.90;;;;;;5054266;28;20589;-78
2022/01/16 10:58:14;;;;;;;10.57;4.38;;;4.80;99.90;;;;;;5037640;28;20585;-78
2022/01/16 11:01:03;;;;;;;13.18;4.97;;;4.50;99.90;;;;;;5038867;28;22851;-80
2022/01/16 11:03:51;;;;;;;14.30;4.93;;;4.80;99.90;;;;;;5037096;28;20049;-80
2022/01/16 11:06:23;;;;;;;9.02;4.22;;;5.10;99.90;;;;;;5037790;28;20037;-76
2022/01/16 11:08:56;;;;;;;9.77;5.25;;;5.60;99.90;;;;;;5044354;28;20064;-76
2022/01/16 11:11:26;;;;;;;7.70;4.05;;;4.90;99.90;;;;;;5041319;28;20129;-76
2022/01/16 11:13:54;;;;;;;17.67;5.32;;;5.00;99.90;;;;;;5042189;28;20366;-76
2022/01/16 11:16:21;;;;;;;10.23;4.40;;;4.40;99.90;;;;;;5040085;28;20037;-76
2022/01/16 11:18:51;;;;;;;13.60;5.65;;;5.00;99.90;;;;;;5038584;28;20068;-76
2022/01/16 11:21:31;;;;;;;13.20;5.95;;;3.90;99.90;;;;;;5044410;28;20063;-75
2022/01/16 11:26:49;;;;;;;8.90;4.47;;;4.60;99.90;;;;;;5059148;28;20944;-76
2022/01/16 11:29:20;;;;;;;7.88;3.58;;;6.00;99.90;;;;;;5041540;28;20555;-76
2022/01/16 11:31:52;;;;;;;10.02;5.50;;;5.40;99.90;;;;;;5044375;28;20037;-76
2022/01/16 11:34:18;;;;;;;16.40;5.55;;;4.80;99.90;;;;;;5054433;28;20511;-77
2022/01/16 11:36:47;;;;;;;11.15;6.70;;;4.50;99.90;;;;;;5038336;28;20041;-76
2022/01/16 11:39:13;;;;;;;9.55;5.38;;;5.10;99.90;;;;;;5039542;28;20041;-76
2022/01/16 11:41:56;;;;;;;11.77;6.90;;;5.00;99.90;;;;;;5038689;28;20060;-76
2022/01/16 11:44:26;;;;;;;10.40;5.80;;;4.40;99.90;;;;;;5039686;28;20073;-78
2022/01/16 11:46:55;;;;;;;10.05;4.40;;;5.10;99.90;;;;;;5035906;28;20043;-78
2022/01/16 11:49:43;;;;;;;10.38;4.63;;;5.20;99.90;;;;;;5057719;28;20048;-78
2022/01/16 11:52:10;;;;;;;12.73;5.43;;;4.70;99.90;;;;;;5057942;28;20140;-78
2022/01/16 11:54:44;;;;;;;10.60;4.75;;;5.20;99.90;;;;;;5056104;28;20830;-77
2022/01/16 11:57:25;;;;;;;9.45;4.95;;;5.20;99.90;;;;;;5056233;28;20202;-77
2022/01/16 12:00:08;;;;;;;4.80;2.45;;;5.20;99.90;;;;;;5054274;28;20568;-75
2022/01/16 12:02:38;;;;;;;8.73;3.42;;;5.30;99.90;;;;;;5057885;28;20057;-81
2022/01/16 12:05:07;;;;;;;7.75;3.65;;;5.40;99.90;;;;;;5050832;28;20051;-75
2022/01/16 12:07:35;;;;;;;10.95;3.97;;;5.30;99.90;;;;;;5055927;28;20527;-74
2022/01/16 12:10:04;;;;;;;6.43;3.35;;;5.30;99.90;;;;;;5056105;28;20114;-74
2022/01/16 12:12:31;;;;;;;9.98;4.18;;;5.40;99.90;;;;;;5058710;28;20138;-73
2022/01/16 12:15:15;;;;;;;6.82;3.53;;;5.70;99.90;;;;;;5059489;28;20241;-75
2022/01/16 12:17:43;;;;;;;7.18;3.53;;;5.50;99.90;;;;;;5056780;28;20083;-74
2022/01/16 12:20:14;;;;;;;8.45;3.75;;;5.50;99.90;;;;;;5059712;28;20094;-74
2022/01/16 12:22:49;;;;;;;10.68;5.65;;;6.10;99.90;;;;;;5058467;28;20037;-74
2022/01/16 12:25:18;;;;;;;8.75;4.30;;;5.50;99.90;;;;;;5058421;28;20124;-74
2022/01/16 12:27:45;;;;;;;12.05;4.03;;;5.40;99.90;;;;;;5055855;28;20104;-80
2022/01/16 12:30:32;;;;;;;6.85;3.67;;;5.30;99.90;;;;;;5057700;28;20040;-80
2022/01/16 12:33:20;;;;;;;7.00;3.50;;;5.20;99.90;;;;;;5053229;28;20037;-80
2022/01/16 12:35:49;;;;;;;7.25;4.28;;;5.10;99.90;;;;;;5056482;28;20106;-80
2022/01/16 12:38:30;;;;;;;5.65;2.85;;;4.70;99.90;;;;;;5056256;28;20106;-79
2022/01/16 12:41:00;;;;;;;10.23;4.38;;;5.20;99.90;;;;;;5059241;28;20044;-79
2022/01/16 12:43:30;;;;;;;5.15;2.80;;;5.30;99.90;;;;;;5059117;28;20045;-75
2022/01/16 12:45:57;;;;;;;6.70;3.85;;;5.80;99.90;;;;;;5057790;28;20048;-74
2022/01/16 12:48:26;;;;;;;6.97;2.83;;;5.30;99.90;;;;;;5052105;28;20052;-74
2022/01/16 12:51:02;;;;;;;6.75;3.35;;;4.50;99.90;;;;;;5056290;28;20052;-74
2022/01/16 12:53:44;;;;;;;7.55;3.47;;;6.10;99.90;;;;;;5052309;28;20045;-74
2022/01/16 12:57:02;;;;;;;7.53;3.28;;;5.40;99.90;;;;;;5052478;28;20048;-76
2022/01/16 12:59:36;;;;;;;6.05;3.13;;;5.40;99.90;;;;;;5050881;28;20075;-77
2022/01/16 13:02:04;;;;;;;7.50;3.90;;;5.30;99.90;;;;;;5052178;28;20041;-76
2022/01/16 13:04:43;;;;;;;7.82;3.22;;;5.10;99.90;;;;;;5059626;28;20474;-77
2022/01/16 13:07:18;;;;;;;6.80;2.20;;;6.70;99.90;;;;;;5055842;28;20539;-77
2022/01/16 13:09:47;;;;;;;7.68;2.50;;;5.80;99.90;;;;;;5056353;28;20041;-77
2022/01/16 13:12:12;;;;;;;10.80;3.95;;;4.80;99.90;;;;;;5058433;28;20075;-76
2022/01/16 13:14:43;;;;;;;6.97;3.10;;;5.70;99.90;;;;;;5046836;28;20132;-77
2022/01/16 13:17:12;;;;;;;8.70;2.80;;;5.80;99.90;;;;;;5058113;28;20069;-77
2022/01/16 13:22:19;;;;;;;5.57;3.17;;;5.40;99.90;;;;;;5062279;28;20048;-77
2022/01/16 13:25:03;;;;;;;4.18;3.28;;;5.90;99.90;;;;;;5045381;28;20051;-77
2022/01/16 13:27:39;;;;;;;7.68;4.00;;;5.70;99.90;;;;;;5052867;28;20047;-77
2022/01/16 13:30:16;;;;;;;6.05;3.25;;;4.80;99.90;;;;;;5056443;28;20044;-77
2022/01/16 13:32:42;;;;;;;7.18;3.45;;;5.90;99.90;;;;;;5050727;28;20535;-77
2022/01/16 13:35:29;;;;;;;6.78;3.60;;;6.10;99.90;;;;;;5057750;28;20036;-76
2022/01/16 13:38:09;;;;;;;7.75;3.63;;;5.90;99.90;;;;;;5059377;28;20049;-78
2022/01/16 13:40:39;;;;;;;4.90;2.25;;;5.60;99.90;;;;;;5051534;28;20045;-78
2022/01/16 13:43:12;;;;;;;5.38;2.95;;;6.30;99.90;;;;;;5053132;28;20041;-79
2022/01/16 13:45:48;;;;;;;7.65;3.67;;;5.90;99.90;;;;;;5054681;28;20439;-78
2022/01/16 13:51:23;;;;;;;7.47;2.60;;;6.10;99.90;;;;;;5048529;28;20057;-80
2022/01/16 13:53:52;;;;;;;7.78;3.45;;;5.90;99.90;;;;;;5049389;28;20037;-79
2022/01/16 13:56:29;;;;;;;4.80;3.13;;;5.90;99.90;;;;;;5050749;28;20083;-80
2022/01/16 13:59:03;;;;;;;6.85;2.95;;;5.90;99.90;;;;;;5050360;28;20752;-79
2022/01/16 14:01:36;;;;;;;6.55;4.00;;;4.70;99.90;;;;;;5045155;28;20044;-79
2022/01/16 14:04:32;;;;;;;7.90;3.17;;;4.90;99.90;;;;;;5049140;28;20033;-75